Terminal Aerodrome Forecast
Issued by NWS

Home | Current Version | Previous Version | Text Only | Print | Product List | Glossary On
Versions: 1 2 3 4 5 6 7 8 9 10 11 12 13 14 15 16 17
000
FTUS44 KMAF 261700 RRA
TAFHOB
TAF
KHOB 261742Z 2618/2718 23016G25KT P6SM BKN100
     FM270000 26011KT P6SM OVC080
     FM270400 35009KT P6SM OVC050
     FM271200 01010KT P6SM BKN070=

USA.gov is the U.S. government's official web portal to all federal, state and local government web resources and services.